Accueil
METAR-TAF:

METAR-TAF

Aéroports :

Aéroport de Mannheim

Mannheim, Allemagne

latitude: 49-28-21N, longitude: 008-30-56E, altitude: 100 m

Observation

Le bulletin a été fait il y a 41 minutes, à 17:50 UTC
Vent 5 kt de nord
Température 30°C
Humidité 29%
Pression 1016 hPa
Visibilité 10 km ou plus
pas de nuages en-dessous de 1500 mètres et pas de cumulonimbus.

METAR: EDFM 151750Z 36005KT CAVOK 30/10 Q1016

Heure: 20:31 (18:31 UTC)

Prévision

Le bulletin a été fait il y a 1 heure et 31 minutes, à 17:00 UTC
Prévision valable du 15 à 18 UTC au 15 à 21 UTC
Vent 5 kt de nord
Visibilité 10 km ou plus
pas de nuages en-dessous de 1500 mètres et pas de cumulonimbus.
Evoluant progressivement
du 15 à 18 UTC au 15 à 20 UTC
Vent 3 kt de direction variable

TAF: EDFM 151700Z 1518/1521 36005KT CAVOK BECMG 1518/1520 VRB03KT

Observations et prévisions météorologiques de plus de 4000 aéroports (messages METAR et TAF).

Les stations disponibles sont représentées par des disques jaunes et rouges sur la carte.

Passer la souris dessus pour voir le nom de la station.

Cliquer dessus pour voir les observations et prévisions météorologiques.

Pour changer de carte: cliquez sur les boutons verts avec une croix noire pour zoomer, sur le bouton vert avec un tiret pour effectuer un zoom arrière, ou sur les flèches vertes pour les cartes adjacentes.


METAR-TAF: